createdAt,value
2022-11-03T00:01:00.148Z,100400.00
2022-11-03T00:03:28.595Z,100395.72
2022-11-03T00:19:26.268Z,100398.09
2022-11-03T00:21:58.499Z,100408.31
2022-11-03T00:24:26.895Z,100396.50
2022-11-03T00:26:55.196Z,100405.72
2022-11-03T00:29:25.296Z,100403.25
2022-11-03T00:31:55.158Z,100406.59
2022-11-03T00:34:23.433Z,100403.25
2022-11-03T00:36:51.668Z,100406.59
2022-11-03T00:39:20.188Z,100408.94
2022-11-03T00:41:48.593Z,100402.78
2022-11-03T00:44:16.861Z,100405.13
2022-11-03T00:46:45.245Z,100408.53
2022-11-03T00:49:14.921Z,100412.03
2022-11-03T00:51:43.317Z,100414.72
2022-11-03T00:54:11.629Z,100417.97
2022-11-03T00:56:41.027Z,100414.41
2022-11-03T00:59:10.628Z,100414.34
2022-11-03T01:01:46.631Z,100415.84
2022-11-03T01:04:27.821Z,100417.63
2022-11-03T01:06:57.333Z,100427.59
2022-11-03T01:09:28.239Z,100418.78
2022-11-03T01:12:00.887Z,100425.44
2022-11-03T01:14:30.528Z,100422.13
2022-11-03T01:16:59.278Z,100418.69
2022-11-03T01:19:29.159Z,100416.16
2022-11-03T01:21:58.002Z,100422.94
2022-11-03T01:24:26.190Z,100422.13
2022-11-03T01:26:54.629Z,100423.59
2022-11-03T01:29:22.858Z,100422.69
2022-11-03T01:31:51.088Z,100418.28
2022-11-03T01:34:20.412Z,100419.19
2022-11-03T01:36:50.181Z,100418.34
2022-11-03T01:39:19.645Z,100417.44
2022-11-03T01:41:48.913Z,100420.66
2022-11-03T01:44:28.278Z,100420.72
2022-11-03T01:46:59.335Z,100414.78
2022-11-03T01:49:30.877Z,100418.28
2022-11-03T01:52:03.345Z,100415.06
2022-11-03T01:54:32.226Z,100418.63
2022-11-03T01:57:01.465Z,100412.81
2022-11-03T01:59:29.869Z,100415.41
2022-11-03T02:01:58.153Z,100402.75
2022-11-03T02:04:28.645Z,100401.97
2022-11-03T02:07:02.004Z,100396.81
2022-11-03T02:09:32.438Z,100400.25
2022-11-03T02:12:08.231Z,100406.97
2022-11-03T02:14:38.277Z,100401.91
2022-11-03T02:17:09.180Z,100395.16
2022-11-03T02:19:39.918Z,100396.81
2022-11-03T02:22:17.526Z,100403.56
2022-11-03T02:24:53.973Z,100402.06
2022-11-03T02:27:24.550Z,100402.88
2022-11-03T02:29:52.908Z,100401.28
2022-11-03T02:32:23.592Z,100403.75
2022-11-03T02:34:56.925Z,100401.97
2022-11-03T02:37:27.301Z,100384.94
2022-11-03T02:39:59.432Z,100384.94
2022-11-03T02:42:29.332Z,100378.97
2022-11-03T02:45:00.688Z,100373.75
2022-11-03T02:47:29.990Z,100380.44
2022-11-03T02:49:58.332Z,100379.56
2022-11-03T02:52:37.551Z,100371.03
2022-11-03T02:55:09.139Z,100370.09
2022-11-03T02:57:41.016Z,100378.44
2022-11-03T03:00:10.312Z,100377.44
2022-11-03T03:02:41.587Z,100375.50
2022-11-03T03:05:12.449Z,100372.81
2022-11-03T03:07:45.638Z,100373.69
2022-11-03T03:10:16.271Z,100377.06
2022-11-03T03:12:48.800Z,100380.44
2022-11-03T03:15:18.313Z,100375.16
2022-11-03T03:17:51.691Z,100373.34
2022-11-03T03:20:22.499Z,100374.91
2022-11-03T03:22:54.919Z,100372.16
2022-11-03T03:25:25.246Z,100371.97
2022-11-03T03:27:56.911Z,100364.16
2022-11-03T03:30:25.349Z,100358.31
2022-11-03T03:32:53.766Z,100357.66
2022-11-03T03:35:24.259Z,100354.31
2022-11-03T03:37:54.720Z,100364.59
2022-11-03T03:40:24.120Z,100361.25
2022-11-03T03:42:53.698Z,100357.81
2022-11-03T03:45:23.581Z,100359.50
2022-11-03T03:47:57.313Z,100359.50
2022-11-03T03:50:27.096Z,100350.31
2022-11-03T03:52:56.428Z,100352.00
2022-11-03T03:55:28.171Z,100357.06
2022-11-03T03:57:59.522Z,100357.94
2022-11-03T04:00:30.472Z,100359.47
2022-11-03T04:02:59.242Z,100356.72
2022-11-03T04:05:27.763Z,100357.81
2022-11-03T04:07:56.438Z,100355.31
2022-11-03T04:10:24.871Z,100361.25
2022-11-03T04:13:01.928Z,100357.94
2022-11-03T04:15:41.989Z,100347.88
2022-11-03T04:18:20.988Z,100354.81
2022-11-03T04:20:58.007Z,100349.75
2022-11-03T04:23:26.550Z,100347.03
2022-11-03T04:25:56.021Z,100347.00
2022-11-03T04:28:26.027Z,100338.66
2022-11-03T04:30:58.885Z,100336.09
2022-11-03T04:33:28.019Z,100336.97
2022-11-03T04:35:57.210Z,100338.72
2022-11-03T04:38:27.626Z,100331.19
2022-11-03T04:40:57.064Z,100327.88
2022-11-03T04:43:31.250Z,100334.63
2022-11-03T04:46:04.268Z,100331.25
2022-11-03T04:48:34.559Z,100329.53
2022-11-03T04:51:07.907Z,100327.81
2022-11-03T04:53:36.365Z,100331.25
2022-11-03T04:56:15.372Z,100330.44
2022-11-03T04:58:44.038Z,100327.91
2022-11-03T05:01:17.271Z,100323.56
2022-11-03T05:03:51.070Z,100322.59
2022-11-03T05:06:21.176Z,100325.94
2022-11-03T05:08:54.898Z,100320.00
2022-11-03T05:11:32.296Z,100320.75
2022-11-03T05:14:02.302Z,100323.13
2022-11-03T05:16:32.350Z,100323.94
2022-11-03T05:19:00.909Z,100320.47
2022-11-03T05:21:30.785Z,100317.94
2022-11-03T05:23:59.891Z,100315.41
2022-11-03T05:26:31.200Z,100315.41
2022-11-03T05:29:01.977Z,100312.06
2022-11-03T05:31:32.830Z,100309.63
2022-11-03T05:34:02.888Z,100327.38
2022-11-03T05:36:32.536Z,100320.56
2022-11-03T05:39:02.910Z,100315.38
2022-11-03T05:41:31.778Z,100307.81
2022-11-03T05:44:00.952Z,100311.28
2022-11-03T05:46:32.800Z,100316.38
2022-11-03T05:49:02.360Z,100311.22
2022-11-03T05:51:33.370Z,100322.06
2022-11-03T05:54:03.841Z,100319.34
2022-11-03T05:56:33.062Z,100316.75
2022-11-03T05:59:01.771Z,100320.19
2022-11-03T06:01:32.603Z,100325.44
2022-11-03T06:04:02.745Z,100328.94
2022-11-03T06:06:33.562Z,100325.66
2022-11-03T06:09:04.039Z,100325.72
2022-11-03T06:11:34.081Z,100328.41
2022-11-03T06:14:02.808Z,100331.25
2022-11-03T06:16:38.900Z,100338.13
2022-11-03T06:19:28.338Z,100339.75
2022-11-03T06:21:58.789Z,100336.41
2022-11-03T06:24:39.283Z,100341.38
2022-11-03T06:27:10.854Z,100340.53
2022-11-03T06:29:39.660Z,100342.41
2022-11-03T06:32:11.924Z,100347.66
2022-11-03T06:34:42.883Z,100346.84
2022-11-03T06:37:22.071Z,100350.34
2022-11-03T06:39:50.810Z,100354.06
2022-11-03T06:42:21.522Z,100354.44
2022-11-03T06:44:51.235Z,100363.13
2022-11-03T06:47:24.532Z,100364.88
2022-11-03T06:49:54.824Z,100358.22
2022-11-03T06:52:31.893Z,100354.88
2022-11-03T06:55:17.340Z,100351.63
2022-11-03T06:57:48.046Z,100351.91
2022-11-03T07:00:33.480Z,100343.69
2022-11-03T07:03:08.911Z,100350.81
2022-11-03T07:05:38.253Z,100346.88
2022-11-03T07:08:21.707Z,100351.31
2022-11-03T07:10:51.501Z,100346.44
2022-11-03T07:13:21.564Z,100347.53
2022-11-03T07:15:49.834Z,100352.84
2022-11-03T07:18:22.874Z,100345.44
2022-11-03T07:20:52.302Z,100344.00
2022-11-03T07:23:21.923Z,100347.56
2022-11-03T07:25:53.532Z,100340.84
2022-11-03T07:28:23.003Z,100343.53
2022-11-03T07:30:51.332Z,100346.25
2022-11-03T07:33:22.583Z,100341.28
2022-11-03T07:36:14.456Z,100348.09
2022-11-03T07:38:39.856Z,100338.72
2022-11-03T07:41:10.722Z,100335.25
2022-11-03T07:43:39.134Z,100337.72
2022-11-03T07:46:08.482Z,100332.59
2022-11-03T07:48:40.654Z,100324.13
2022-11-03T07:51:16.683Z,100322.50
2022-11-03T07:53:45.703Z,100315.88
2022-11-03T07:56:19.861Z,100314.38
2022-11-03T07:58:49.383Z,100302.66
2022-11-03T08:01:24.321Z,100303.69
2022-11-03T08:03:56.882Z,100299.81
2022-11-03T08:06:25.123Z,100296.47
2022-11-03T08:08:53.803Z,100301.56
2022-11-03T08:11:27.797Z,100296.34
2022-11-03T08:13:58.165Z,100289.56
2022-11-03T08:16:26.724Z,100284.50
2022-11-03T08:18:56.474Z,100276.97
2022-11-03T08:21:24.994Z,100283.03
2022-11-03T08:23:53.503Z,100273.84
2022-11-03T08:26:21.923Z,100266.34
2022-11-03T08:28:50.553Z,100263.91
2022-11-03T08:31:18.682Z,100266.50
2022-11-03T08:33:47.105Z,100260.59
2022-11-03T08:36:17.378Z,100268.25
2022-11-03T08:38:45.840Z,100266.50
2022-11-03T08:41:14.130Z,100263.91
2022-11-03T08:43:42.511Z,100250.34
2022-11-03T08:46:17.280Z,100233.38
2022-11-03T08:48:47.602Z,100241.19
2022-11-03T08:51:17.636Z,100238.66
2022-11-03T08:53:46.572Z,100239.56
2022-11-03T08:56:20.459Z,100228.50
2022-11-03T08:58:51.152Z,100228.50
2022-11-03T09:01:19.451Z,100232.75
2022-11-03T09:03:47.951Z,100237.03
2022-11-03T09:06:18.222Z,100239.59
2022-11-03T09:11:35.058Z,100239.63
2022-11-03T09:14:03.324Z,100240.44
2022-11-03T09:16:31.744Z,100231.94
2022-11-03T09:18:59.895Z,100232.78
2022-11-03T09:21:29.725Z,100233.63
2022-11-03T09:23:59.732Z,100225.97
2022-11-03T09:26:28.217Z,100225.09
2022-11-03T09:28:56.875Z,100216.56
2022-11-03T09:31:28.554Z,100221.69
2022-11-03T09:33:57.199Z,100219.13
2022-11-03T09:36:25.509Z,100214.84
2022-11-03T09:38:55.353Z,100212.28
2022-11-03T09:41:27.793Z,100211.44
2022-11-03T09:44:14.607Z,100211.41
2022-11-03T09:46:43.076Z,100203.72
2022-11-03T09:49:14.188Z,100202.00
2022-11-03T09:51:42.888Z,100190.91
2022-11-03T09:54:15.048Z,100191.75
2022-11-03T09:56:43.918Z,100184.84
2022-11-03T09:59:16.521Z,100184.81
2022-11-03T10:01:48.901Z,100174.53
2022-11-03T10:04:18.147Z,100169.28
2022-11-03T10:06:46.477Z,100156.31
2022-11-03T10:09:21.337Z,100156.97
2022-11-03T10:11:49.687Z,100153.44
2022-11-03T10:14:19.347Z,100147.16
2022-11-03T10:16:53.481Z,100145.19
2022-11-03T10:19:22.299Z,100133.91
2022-11-03T10:21:50.566Z,100131.16
2022-11-03T10:24:20.476Z,100124.28
2022-11-03T10:26:50.102Z,100122.31
2022-11-03T10:29:21.173Z,100122.97
2022-11-03T10:31:52.221Z,100121.16
2022-11-03T10:34:42.029Z,100116.00
2022-11-03T10:37:12.069Z,100112.28
2022-11-03T10:39:41.818Z,100110.03
2022-11-03T10:42:17.948Z,100099.59
2022-11-03T10:44:46.234Z,100107.97
2022-11-03T10:47:24.380Z,100096.03
2022-11-03T10:49:55.290Z,100106.44
2022-11-03T10:52:24.657Z,100090.75
2022-11-03T10:54:55.066Z,100080.34
2022-11-03T10:57:23.931Z,100077.66
2022-11-03T10:59:54.467Z,100078.03
2022-11-03T11:02:24.166Z,100073.91
2022-11-03T11:04:55.180Z,100068.31
2022-11-03T11:07:26.502Z,100062.72
2022-11-03T11:09:56.361Z,100049.41
2022-11-03T11:12:25.263Z,100046.25
2022-11-03T11:14:55.098Z,100040.19
2022-11-03T11:17:34.522Z,100034.72
2022-11-03T11:20:13.593Z,100024.34
2022-11-03T11:22:41.984Z,100016.53
2022-11-03T11:25:11.591Z,100008.59
2022-11-03T11:27:55.459Z,100012.16
2022-11-03T11:30:37.494Z,100005.47
2022-11-03T11:33:14.513Z,100005.47
2022-11-03T11:35:58.754Z,99996.81
2022-11-03T11:38:38.254Z,100003.75
2022-11-03T11:41:08.215Z,99986.47
2022-11-03T11:43:36.615Z,99982.72
2022-11-03T11:46:15.653Z,99977.50
2022-11-03T11:48:44.006Z,99969.69
2022-11-03T11:51:13.072Z,99968.59
2022-11-03T11:53:42.978Z,99966.38
2022-11-03T11:56:14.233Z,99959.13
2022-11-03T11:58:43.936Z,99961.41
2022-11-03T12:01:23.243Z,99962.72
2022-11-03T12:03:52.902Z,99942.94
2022-11-03T12:06:33.670Z,99947.59
2022-11-03T12:09:17.579Z,99946.19
2022-11-03T12:11:50.133Z,99939.78
2022-11-03T12:14:27.161Z,99937.75
2022-11-03T12:16:55.710Z,99929.22
2022-11-03T12:19:35.028Z,99930.00
2022-11-03T12:22:03.727Z,99929.22
2022-11-03T12:24:43.026Z,99921.69
2022-11-03T12:27:22.302Z,99912.94
2022-11-03T12:29:52.102Z,99908.47
2022-11-03T12:32:32.799Z,99910.94
2022-11-03T12:35:03.221Z,99911.50
2022-11-03T12:37:31.502Z,99901.97
2022-11-03T12:39:59.875Z,99898.09
2022-11-03T12:42:28.367Z,99895.16
2022-11-03T12:44:58.213Z,99888.53
2022-11-03T12:47:26.582Z,99894.91
2022-11-03T12:49:54.891Z,99890.88
2022-11-03T12:52:23.244Z,99882.97
2022-11-03T12:54:51.514Z,99878.94
2022-11-03T12:57:19.867Z,99874.16
2022-11-03T12:59:48.274Z,99873.13
2022-11-03T13:02:18.371Z,99866.03
2022-11-03T13:04:46.843Z,99867.56
2022-11-03T13:07:15.896Z,99860.22
2022-11-03T13:09:46.624Z,99865.13
2022-11-03T13:12:24.832Z,99864.38
2022-11-03T13:14:53.217Z,99866.34
2022-11-03T13:17:22.905Z,99860.78
2022-11-03T13:19:54.484Z,99852.16
2022-11-03T13:22:23.193Z,99847.50
2022-11-03T13:24:51.493Z,99854.56
2022-11-03T13:27:19.762Z,99845.06
2022-11-03T13:29:48.093Z,99838.34
2022-11-03T13:32:16.456Z,99840.28
2022-11-03T13:34:46.184Z,99835.22
2022-11-03T13:37:14.557Z,99831.88
2022-11-03T13:39:42.761Z,99832.88
2022-11-03T13:42:11.294Z,99824.69
2022-11-03T13:44:39.616Z,99821.47
2022-11-03T13:47:11.548Z,99819.91
2022-11-03T13:52:30.884Z,99785.00
2022-11-03T14:00:36.435Z,99786.38
2022-11-03T14:05:53.138Z,99780.69
2022-11-03T14:08:22.802Z,99776.50
2022-11-03T14:10:51.094Z,99776.56
2022-11-03T14:13:18.396Z,99770.50
2022-11-03T14:15:46.618Z,99769.75
2022-11-03T14:18:14.951Z,99762.97
2022-11-03T14:20:45.707Z,99761.22
2022-11-03T14:23:14.058Z,99757.72
2022-11-03T14:25:43.707Z,99755.91
2022-11-03T14:28:12.018Z,99754.22
2022-11-03T14:30:40.279Z,99754.31
2022-11-03T14:33:08.801Z,99754.56
2022-11-03T14:35:37.655Z,99766.69
2022-11-03T14:38:05.988Z,99764.25
2022-11-03T14:40:44.027Z,99763.44
2022-11-03T14:43:13.872Z,99753.25
2022-11-03T14:45:42.785Z,99752.44
2022-11-03T14:48:11.436Z,99757.63
2022-11-03T14:50:39.690Z,99749.13
2022-11-03T14:53:07.954Z,99744.94
2022-11-03T14:55:36.696Z,99745.88
2022-11-03T14:58:05.267Z,99742.56
2022-11-03T15:00:35.234Z,99736.59
2022-11-03T15:03:05.083Z,99734.09
2022-11-03T15:05:43.336Z,99729.81
2022-11-03T15:08:11.834Z,99723.81
2022-11-03T15:10:40.095Z,99730.75
2022-11-03T15:13:08.599Z,99721.41
2022-11-03T15:15:41.238Z,99722.22
2022-11-03T15:18:10.015Z,99716.19
2022-11-03T15:20:38.838Z,99723.91
2022-11-03T15:25:55.995Z,99721.41
2022-11-03T15:28:24.320Z,99718.97
2022-11-03T15:30:53.983Z,99710.56
2022-11-03T15:33:22.268Z,99720.09
2022-11-03T15:35:50.949Z,99720.97
2022-11-03T15:38:19.618Z,99716.75
2022-11-03T15:40:47.783Z,99710.88
2022-11-03T15:43:16.056Z,99723.78
2022-11-03T15:45:44.548Z,99716.97
2022-11-03T15:48:14.198Z,99717.03
2022-11-03T15:50:42.555Z,99713.66
2022-11-03T15:53:10.656Z,99704.28
2022-11-03T15:55:38.986Z,99707.78
2022-11-03T15:58:07.415Z,99706.16
2022-11-03T16:00:36.521Z,99702.03
2022-11-03T16:03:05.587Z,99696.13
2022-11-03T16:05:35.453Z,99697.19
2022-11-03T16:08:03.598Z,99693.84
2022-11-03T16:10:31.826Z,99690.53
2022-11-03T16:12:59.980Z,99695.75
2022-11-03T16:15:28.185Z,99697.53
2022-11-03T16:18:02.934Z,99704.41
2022-11-03T16:20:31.295Z,99699.34
2022-11-03T16:23:00.897Z,99706.16
2022-11-03T16:25:29.167Z,99709.56
2022-11-03T16:27:57.314Z,99703.56
2022-11-03T16:30:25.559Z,99695.88
2022-11-03T16:32:54.106Z,99707.81
2022-11-03T16:35:22.396Z,99695.84
2022-11-03T16:37:50.731Z,99704.41
2022-11-03T16:40:20.497Z,99702.75
2022-11-03T16:42:48.674Z,99691.69
2022-11-03T16:45:19.328Z,99694.31
2022-11-03T16:47:48.778Z,99702.91
2022-11-03T16:50:17.581Z,99693.53
2022-11-03T16:52:45.974Z,99685.81
2022-11-03T16:55:15.243Z,99698.63
2022-11-03T16:57:44.997Z,99703.78
2022-11-03T17:00:14.839Z,99693.59
2022-11-03T17:02:43.321Z,99689.34
2022-11-03T17:05:12.093Z,99683.38
2022-11-03T17:07:40.792Z,99680.91
2022-11-03T17:10:09.781Z,99681.84
2022-11-03T17:12:38.051Z,99673.28
2022-11-03T17:15:08.209Z,99651.94
2022-11-03T17:17:36.649Z,99646.81
2022-11-03T17:20:05.166Z,99645.06
2022-11-03T17:22:33.540Z,99645.13
2022-11-03T17:25:01.915Z,99637.38
2022-11-03T17:27:33.451Z,99632.25
2022-11-03T17:30:02.930Z,99625.44
2022-11-03T17:32:36.869Z,99631.41
2022-11-03T17:35:05.648Z,99636.50
2022-11-03T17:37:36.199Z,99634.78
2022-11-03T17:40:05.769Z,99631.41
2022-11-03T17:42:35.180Z,99628.84
2022-11-03T17:45:03.430Z,99628.81
2022-11-03T17:47:34.940Z,99627.13
2022-11-03T17:50:03.304Z,99621.19
2022-11-03T17:52:32.571Z,99626.38
2022-11-03T17:55:01.411Z,99620.44
2022-11-03T17:57:30.107Z,99624.75
2022-11-03T17:59:59.477Z,99620.47
2022-11-03T18:02:28.825Z,99617.94
2022-11-03T18:05:01.622Z,99621.38
2022-11-03T18:07:31.282Z,99623.94
2022-11-03T18:09:59.751Z,99620.56
2022-11-03T18:12:41.802Z,99628.25
2022-11-03T18:15:14.401Z,99623.13
2022-11-03T18:17:42.782Z,99604.38
2022-11-03T18:20:17.594Z,99610.38
2022-11-03T18:22:46.961Z,99618.94
2022-11-03T18:25:15.808Z,99601.91
2022-11-03T18:27:44.169Z,99613.03
2022-11-03T18:30:13.581Z,99607.91
2022-11-03T18:32:43.742Z,99615.56
2022-11-03T18:35:17.019Z,99599.41
2022-11-03T18:37:46.939Z,99600.25
2022-11-03T18:40:16.043Z,99597.66
2022-11-03T18:42:44.355Z,99600.16
2022-11-03T18:45:13.352Z,99593.34
2022-11-03T18:47:41.688Z,99584.88
2022-11-03T18:50:14.518Z,99590.03
2022-11-03T18:52:45.423Z,99575.50
2022-11-03T18:55:16.456Z,99567.06
2022-11-03T18:57:44.909Z,99573.84
2022-11-03T19:00:19.140Z,99573.81
2022-11-03T19:02:47.958Z,99571.28
2022-11-03T19:05:16.761Z,99568.72
2022-11-03T19:07:45.952Z,99568.72
2022-11-03T19:10:16.842Z,99560.97
2022-11-03T19:12:45.699Z,99561.84
2022-11-03T19:15:18.547Z,99551.63
2022-11-03T19:17:47.221Z,99561.09
2022-11-03T19:20:16.357Z,99550.00
2022-11-03T19:22:45.241Z,99548.25
2022-11-03T19:25:14.728Z,99542.31
2022-11-03T19:27:45.764Z,99533.75
2022-11-03T19:30:15.392Z,99515.84
2022-11-03T19:32:46.073Z,99508.97
2022-11-03T19:35:19.953Z,99506.47
2022-11-03T19:37:49.920Z,99499.66
2022-11-03T19:40:21.082Z,99493.66
2022-11-03T19:42:49.694Z,99493.66
2022-11-03T19:45:19.320Z,99497.09
2022-11-03T19:48:18.349Z,99502.25
2022-11-03T19:50:39.255Z,99492.00
2022-11-03T19:53:08.454Z,99497.97
2022-11-03T19:55:38.481Z,99486.91
2022-11-03T19:58:09.990Z,99478.34
2022-11-03T20:00:38.415Z,99484.31
2022-11-03T20:03:06.745Z,99481.78
2022-11-03T20:05:35.160Z,99480.91
2022-11-03T20:08:05.047Z,99487.66
2022-11-03T20:10:35.968Z,99481.66
2022-11-03T20:13:04.952Z,99486.78
2022-11-03T20:15:35.026Z,99483.38
2022-11-03T20:18:03.338Z,99481.63
2022-11-03T20:20:35.401Z,99482.53
2022-11-03T20:23:04.534Z,99474.88
2022-11-03T20:25:35.330Z,99481.69
2022-11-03T20:28:07.104Z,99478.25
2022-11-03T20:30:36.878Z,99464.56
2022-11-03T20:33:05.624Z,99463.69
2022-11-03T20:35:36.042Z,99461.16
2022-11-03T20:38:04.922Z,99470.53
2022-11-03T20:40:33.697Z,99456.91
2022-11-03T20:43:03.492Z,99450.09
2022-11-03T20:45:31.873Z,99459.50
2022-11-03T20:48:01.560Z,99455.22
2022-11-03T20:50:31.063Z,99439.84
2022-11-03T20:53:00.706Z,99437.22
2022-11-03T20:55:30.165Z,99430.38
2022-11-03T20:57:59.702Z,99426.97
2022-11-03T21:00:28.464Z,99416.72
2022-11-03T21:02:57.709Z,99416.72
2022-11-03T21:05:28.681Z,99407.34
2022-11-03T21:07:57.494Z,99410.72
2022-11-03T21:10:25.730Z,99408.16
2022-11-03T21:12:54.290Z,99407.38
2022-11-03T21:15:33.136Z,99406.50
2022-11-03T21:18:11.803Z,99408.16
2022-11-03T21:20:41.505Z,99397.00
2022-11-03T21:23:15.455Z,99392.78
2022-11-03T21:25:43.761Z,99379.06
2022-11-03T21:28:12.021Z,99379.88
2022-11-03T21:30:40.414Z,99372.25
2022-11-03T21:33:08.694Z,99367.09
2022-11-03T21:35:37.010Z,99371.31
2022-11-03T21:38:07.040Z,99365.28
2022-11-03T21:40:35.853Z,99358.50
2022-11-03T21:43:14.210Z,99353.31
2022-11-03T21:45:42.584Z,99353.31
2022-11-03T21:48:21.194Z,99348.19
2022-11-03T21:50:50.252Z,99338.03
2022-11-03T21:53:19.911Z,99337.94
2022-11-03T21:55:49.175Z,99336.28
2022-11-03T21:58:17.413Z,99339.69
2022-11-03T22:00:47.429Z,99327.72
2022-11-03T22:03:15.885Z,99338.00
2022-11-03T22:05:44.134Z,99336.31
2022-11-03T22:08:12.383Z,99316.66
2022-11-03T22:10:42.072Z,99319.22
2022-11-03T22:13:11.044Z,99303.88
2022-11-03T22:15:49.742Z,99313.25
2022-11-03T22:18:17.962Z,99299.63
2022-11-03T22:20:55.964Z,99295.34
2022-11-03T22:23:34.467Z,99291.03
2022-11-03T22:26:14.135Z,99285.09
2022-11-03T22:28:42.391Z,99281.59
2022-11-03T22:31:20.564Z,99285.06
2022-11-03T22:33:58.949Z,99278.28
2022-11-03T22:36:28.683Z,99278.28
2022-11-03T22:39:06.731Z,99276.50
2022-11-03T22:41:46.595Z,99264.50
2022-11-03T22:44:24.995Z,99265.38
2022-11-03T22:46:53.314Z,99256.88
2022-11-03T22:49:21.567Z,99252.53
2022-11-03T22:51:49.927Z,99230.25
2022-11-03T22:54:18.355Z,99249.03
2022-11-03T22:56:48.054Z,99241.41
2022-11-03T22:59:16.373Z,99233.72
2022-11-03T23:01:44.903Z,99238.84
2022-11-03T23:04:13.249Z,99236.28
2022-11-03T23:06:41.771Z,99247.47
2022-11-03T23:09:11.455Z,99233.84
2022-11-03T23:11:39.935Z,99219.31
2022-11-03T23:14:10.535Z,99213.34
2022-11-03T23:16:40.171Z,99204.78
2022-11-03T23:19:18.722Z,99211.56
2022-11-03T23:21:47.492Z,99217.50
2022-11-03T23:24:25.562Z,99221.81
2022-11-03T23:26:53.942Z,99207.25
2022-11-03T23:29:23.961Z,99184.25
2022-11-03T23:31:52.476Z,99204.78
2022-11-03T23:34:20.930Z,99191.16
2022-11-03T23:36:49.204Z,99186.84
2022-11-03T23:39:18.648Z,99197.91
2022-11-03T23:41:48.115Z,99195.34
2022-11-03T23:44:16.745Z,99182.53
2022-11-03T23:46:56.652Z,99192.75
2022-11-03T23:49:25.534Z,99179.13
2022-11-03T23:51:53.805Z,99170.63
2022-11-03T23:54:22.197Z,99162.19
2022-11-03T23:57:00.456Z,99157.91
2022-11-03T23:59:29.651Z,99161.38
